Terminal Aerodrome Forecast
Issued by NWS Shreveport, LA

Home | Current Version | Previous Version | Text Only | Print | Product List | Glossary On
Versions: 1 2 3 4 5 6 7 8 9 10 11 12 13
000
FTUS44 KSHV 142330
TAFELD
TAF
KELD 142330Z 1500/1524 35004KT P6SM SCT200 BKN250
     FM151500 32004KT P6SM SCT040 SCT200 BKN250
     FM152000 29005KT P6SM FEW040 BKN250=

USA.gov is the U.S. government's official web portal to all federal, state and local government web resources and services.